Time;durP1;ratioP1;P1;durP2;ratioP2;P2;SDS_P1;SDS_P2;PMS_P1;PMS_P2;Temp;Humidity;BMP_temperature;BMP_pressure;BME280_temperature;BME280_humidity;BME280_pressure;Samples;Min_cycle;Max_cycle;Signal;HPM_P1;HPM_P2
2021/08/05 00:00:53;;;;;;;2.60;1.88;;;18.30;98.20;;;;;;5068826;28;20036;-75
2021/08/05 00:03:22;;;;;;;2.75;1.70;;;18.30;98.30;;;;;;5071192;28;20031;-75
2021/08/05 00:05:49;;;;;;;2.67;1.73;;;18.20;98.40;;;;;;5069299;28;20031;-74
2021/08/05 00:08:15;;;;;;;3.00;1.85;;;18.20;98.40;;;;;;5070276;28;20047;-75
2021/08/05 00:10:41;;;;;;;2.80;2.13;;;18.20;98.50;;;;;;5068186;28;20040;-75
2021/08/05 00:13:08;;;;;;;2.03;1.80;;;18.20;98.50;;;;;;5088885;28;20410;-80
2021/08/05 00:15:34;;;;;;;3.50;1.85;;;18.20;98.60;;;;;;5017832;28;20059;-79
2021/08/05 00:18:01;;;;;;;3.75;2.05;;;18.20;99.00;;;;;;5071578;28;20059;-79
2021/08/05 00:20:27;;;;;;;2.42;2.08;;;18.20;98.80;;;;;;5071331;28;20830;-79
2021/08/05 00:22:53;;;;;;;3.72;1.98;;;18.20;98.90;;;;;;5087637;28;20061;-75
2021/08/05 00:25:20;;;;;;;2.10;1.88;;;18.10;98.90;;;;;;5086040;28;20058;-75
2021/08/05 00:27:46;;;;;;;2.38;2.17;;;18.10;99.00;;;;;;5087486;28;20035;-81
2021/08/05 00:30:13;;;;;;;2.38;1.83;;;18.10;99.00;;;;;;5094857;28;20046;-79
2021/08/05 00:32:40;;;;;;;3.45;2.30;;;18.20;99.20;;;;;;5086898;28;20036;-79
2021/08/05 00:35:08;;;;;;;3.85;2.20;;;18.10;99.20;;;;;;5072766;28;20035;-80
2021/08/05 00:37:35;;;;;;;2.17;1.48;;;18.10;99.30;;;;;;5088239;28;20820;-79
2021/08/05 00:40:02;;;;;;;2.45;2.20;;;18.10;99.30;;;;;;5088660;28;20036;-79
2021/08/05 00:42:28;;;;;;;1.98;1.70;;;18.10;99.40;;;;;;5105980;28;20034;-79
2021/08/05 00:44:55;;;;;;;2.92;2.58;;;18.10;99.40;;;;;;5071039;28;20047;-79
2021/08/05 00:47:21;;;;;;;2.75;1.90;;;18.10;99.50;;;;;;5088609;28;20461;-75
2021/08/05 00:49:48;;;;;;;3.28;2.80;;;18.10;99.60;;;;;;5086895;28;20035;-75
2021/08/05 00:52:14;;;;;;;2.47;2.15;;;18.10;99.90;;;;;;5067867;28;20043;-75
2021/08/05 00:54:41;;;;;;;4.18;2.72;;;18.00;99.60;;;;;;5084905;28;20052;-75
2021/08/05 00:57:08;;;;;;;3.95;2.53;;;17.90;99.70;;;;;;5052490;28;20046;-75
2021/08/05 00:59:35;;;;;;;3.85;3.00;;;17.90;99.80;;;;;;5075403;28;20055;-75
2021/08/05 01:02:16;;;;;;;3.25;2.92;;;17.90;99.90;;;;;;5066304;28;20044;-75
2021/08/05 01:04:46;;;;;;;4.37;3.47;;;17.80;99.90;;;;;;5084625;28;20043;-75
2021/08/05 01:07:12;;;;;;;3.97;3.53;;;17.80;99.90;;;;;;5036746;28;20043;-75
2021/08/05 01:09:56;;;;;;;4.20;3.80;;;17.70;99.90;;;;;;5068922;28;20054;-75
2021/08/05 01:12:55;;;;;;;6.32;4.55;;;17.70;99.90;;;;;;5101333;28;20505;-75
2021/08/05 01:15:24;;;;;;;6.05;4.45;;;17.70;99.90;;;;;;5067972;28;20035;-75
2021/08/05 01:18:19;;;;;;;5.30;4.80;;;17.60;99.90;;;;;;5083666;28;20051;-75
2021/08/05 01:20:46;;;;;;;5.22;4.68;;;17.60;99.90;;;;;;5102094;28;20400;-75
2021/08/05 01:23:30;;;;;;;4.95;4.38;;;17.50;99.90;;;;;;5104814;28;20036;-79
2021/08/05 01:26:16;;;;;;;6.28;4.63;;;17.40;99.90;;;;;;5085182;28;20031;-79
2021/08/05 01:28:45;;;;;;;5.13;4.63;;;17.40;99.90;;;;;;5104787;28;20019;-79
2021/08/05 01:31:14;;;;;;;5.47;4.95;;;17.40;99.90;;;;;;5067714;28;20039;-79
2021/08/05 01:33:41;;;;;;;6.10;4.32;;;17.30;99.90;;;;;;5086139;28;20039;-79
2021/08/05 01:36:08;;;;;;;4.82;4.40;;;17.30;99.90;;;;;;5071824;28;20062;-79
2021/08/05 01:38:36;;;;;;;5.07;4.32;;;17.20;99.90;;;;;;5070385;28;20601;-79
2021/08/05 01:41:07;;;;;;;5.30;4.80;;;17.20;99.90;;;;;;5087365;28;20477;-79
2021/08/05 01:43:36;;;;;;;5.47;4.88;;;17.20;99.90;;;;;;5087080;28;20605;-79
2021/08/05 01:46:03;;;;;;;5.38;4.88;;;17.10;99.90;;;;;;5067729;28;20035;-79
2021/08/05 01:48:32;;;;;;;5.35;4.85;;;17.10;99.90;;;;;;5087036;28;20039;-79
2021/08/05 01:51:00;;;;;;;5.47;4.43;;;17.10;99.90;;;;;;5070114;28;20486;-79
2021/08/05 01:53:26;;;;;;;5.55;5.05;;;17.10;99.90;;;;;;5086178;28;20046;-75
2021/08/05 01:55:53;;;;;;;6.32;5.72;;;17.10;99.90;;;;;;5084275;28;20046;-75
2021/08/05 01:58:20;;;;;;;5.97;5.13;;;17.10;99.90;;;;;;5082032;28;20055;-75
2021/08/05 02:00:47;;;;;;;5.68;5.18;;;17.10;99.90;;;;;;5065262;28;20479;-75
2021/08/05 02:03:14;;;;;;;5.35;4.85;;;17.10;99.90;;;;;;5082567;28;20035;-79
2021/08/05 02:05:56;;;;;;;6.82;6.18;;;17.10;99.90;;;;;;5083774;28;20040;-79
2021/08/05 02:08:31;;;;;;;6.03;5.43;;;17.10;99.90;;;;;;5083623;28;20047;-79
2021/08/05 02:10:59;;;;;;;5.85;5.32;;;17.10;99.90;;;;;;5080877;28;20027;-79
2021/08/05 02:13:30;;;;;;;5.50;4.97;;;17.00;99.90;;;;;;5082800;28;20091;-74
2021/08/05 02:15:59;;;;;;;5.18;4.68;;;17.10;99.90;;;;;;5080781;28;20043;-75
2021/08/05 02:18:28;;;;;;;5.10;4.70;;;17.10;99.90;;;;;;5083551;28;20043;-74
2021/08/05 02:20:58;;;;;;;7.03;4.85;;;17.00;99.90;;;;;;5080658;28;20036;-74
2021/08/05 02:23:26;;;;;;;5.03;4.28;;;17.00;99.90;;;;;;5082190;28;20032;-75
2021/08/05 02:25:54;;;;;;;5.32;4.68;;;17.00;99.90;;;;;;5082787;28;20028;-74
2021/08/05 02:28:23;;;;;;;5.05;4.47;;;16.90;99.90;;;;;;5048972;28;20059;-75
2021/08/05 02:30:52;;;;;;;4.82;4.32;;;16.90;99.90;;;;;;5080922;28;20368;-74
2021/08/05 02:33:22;;;;;;;4.68;4.10;;;16.90;99.90;;;;;;5082108;28;20802;-75
2021/08/05 02:35:48;;;;;;;4.50;4.10;;;16.90;99.90;;;;;;5080576;28;20024;-75
2021/08/05 02:38:15;;;;;;;4.97;4.10;;;16.90;99.90;;;;;;5082530;28;20044;-75
2021/08/05 02:40:44;;;;;;;5.93;3.95;;;16.90;99.90;;;;;;5081473;28;20471;-75
2021/08/05 02:43:11;;;;;;;4.50;3.95;;;16.90;99.90;;;;;;5065939;28;20058;-75
2021/08/05 02:45:38;;;;;;;4.57;3.80;;;16.90;99.90;;;;;;5047869;28;20509;-74
2021/08/05 02:48:07;;;;;;;6.15;4.10;;;16.90;99.90;;;;;;5065774;28;20040;-75
2021/08/05 02:50:35;;;;;;;4.65;4.25;;;16.90;99.90;;;;;;5064327;28;20035;-75
2021/08/05 02:53:03;;;;;;;4.45;4.05;;;16.90;99.90;;;;;;5082415;28;20024;-75
2021/08/05 02:55:32;;;;;;;3.38;3.08;;;16.90;99.90;;;;;;5045818;28;20044;-75
2021/08/05 02:58:00;;;;;;;3.88;3.53;;;16.90;99.90;;;;;;5029072;28;20044;-75
2021/08/05 03:00:26;;;;;;;4.75;3.88;;;17.00;99.90;;;;;;5044644;28;20040;-74
2021/08/05 03:02:53;;;;;;;3.85;3.55;;;16.90;99.90;;;;;;5069672;28;20087;-74
2021/08/05 03:05:19;;;;;;;3.80;3.40;;;16.90;99.90;;;;;;5043895;28;20040;-75
2021/08/05 03:07:46;;;;;;;4.75;3.78;;;16.90;99.90;;;;;;5045009;28;20372;-74
2021/08/05 03:10:14;;;;;;;4.50;3.75;;;16.90;99.90;;;;;;5061973;28;20391;-74
2021/08/05 03:12:41;;;;;;;3.13;2.83;;;16.90;99.90;;;;;;5062304;28;20043;-74
2021/08/05 03:15:09;;;;;;;3.78;3.28;;;16.90;99.90;;;;;;5044076;28;20047;-74
2021/08/05 03:17:35;;;;;;;5.35;3.08;;;16.90;99.90;;;;;;5060582;28;20036;-74
2021/08/05 03:20:03;;;;;;;4.13;3.55;;;16.90;99.90;;;;;;5062873;28;20040;-75
2021/08/05 03:22:30;;;;;;;3.97;3.58;;;16.90;99.90;;;;;;5043925;28;20407;-74
2021/08/05 03:24:56;;;;;;;4.88;4.00;;;16.90;99.90;;;;;;5063349;28;20051;-74
2021/08/05 03:27:23;;;;;;;4.45;3.85;;;16.90;99.90;;;;;;5063465;28;20813;-75
2021/08/05 03:29:49;;;;;;;4.43;4.03;;;16.90;99.90;;;;;;5048115;28;20041;-75
2021/08/05 03:32:15;;;;;;;4.28;3.85;;;16.90;99.90;;;;;;5048141;28;20495;-74
2021/08/05 03:34:42;;;;;;;4.18;3.60;;;16.90;99.90;;;;;;5064918;28;20033;-74
2021/08/05 03:37:08;;;;;;;4.72;4.30;;;16.80;99.90;;;;;;5048003;28;20040;-74
2021/08/05 03:39:35;;;;;;;4.45;3.45;;;16.90;99.90;;;;;;5064887;28;20044;-75
2021/08/05 03:42:01;;;;;;;4.28;3.45;;;16.90;99.90;;;;;;5063933;28;20033;-74
2021/08/05 03:44:28;;;;;;;3.65;3.30;;;16.90;99.90;;;;;;5064962;28;20036;-74
2021/08/05 03:46:54;;;;;;;4.60;4.20;;;16.90;99.90;;;;;;5062316;28;20049;-74
2021/08/05 03:49:20;;;;;;;3.55;3.25;;;16.90;99.90;;;;;;5064473;28;20048;-75
2021/08/05 03:51:47;;;;;;;4.75;3.78;;;16.90;99.90;;;;;;5064945;28;20033;-75
2021/08/05 03:54:13;;;;;;;4.72;3.70;;;16.80;99.90;;;;;;5048807;28;20040;-79
2021/08/05 03:56:39;;;;;;;4.75;3.80;;;16.90;99.90;;;;;;5068018;28;20058;-79
2021/08/05 03:59:06;;;;;;;4.53;3.88;;;16.80;99.90;;;;;;5052545;28;20463;-79
2021/08/05 04:01:32;;;;;;;4.57;3.80;;;16.80;99.90;;;;;;5085391;28;20035;-79
2021/08/05 04:03:59;;;;;;;3.72;3.42;;;16.80;99.90;;;;;;5083617;28;20040;-79
2021/08/05 04:06:25;;;;;;;4.20;3.65;;;16.80;99.90;;;;;;5050871;28;20071;-79
2021/08/05 04:08:51;;;;;;;4.20;3.80;;;16.80;99.90;;;;;;5069380;28;20039;-75
2021/08/05 04:11:18;;;;;;;3.72;3.38;;;16.80;99.90;;;;;;5050070;28;20040;-75
2021/08/05 04:13:44;;;;;;;4.80;4.03;;;16.80;99.90;;;;;;5084469;28;20036;-75
2021/08/05 04:16:11;;;;;;;4.68;4.18;;;16.80;99.90;;;;;;5086075;28;20467;-79
2021/08/05 04:18:37;;;;;;;6.15;4.00;;;16.80;99.90;;;;;;5068676;28;20040;-79
2021/08/05 04:21:03;;;;;;;5.45;4.78;;;16.80;99.90;;;;;;5085348;28;20395;-79
2021/08/05 04:23:30;;;;;;;4.80;4.40;;;16.80;99.90;;;;;;5068875;28;20066;-79
2021/08/05 04:25:56;;;;;;;4.50;4.10;;;16.80;99.90;;;;;;5066401;28;20027;-74
2021/08/05 04:28:23;;;;;;;4.82;4.32;;;16.90;99.90;;;;;;5085406;28;20028;-74
2021/08/05 04:30:51;;;;;;;5.43;4.88;;;16.90;99.90;;;;;;5083022;28;20032;-75
2021/08/05 04:33:17;;;;;;;6.90;5.80;;;16.90;99.90;;;;;;5083718;28;20028;-74
2021/08/05 04:35:43;;;;;;;4.60;4.20;;;16.80;99.90;;;;;;5083467;28;20036;-75
2021/08/05 04:38:12;;;;;;;4.78;4.38;;;16.80;99.90;;;;;;5083905;28;20043;-74
2021/08/05 04:40:42;;;;;;;4.95;4.40;;;16.90;99.90;;;;;;5065968;28;20040;-75
2021/08/05 04:43:09;;;;;;;4.75;4.35;;;16.90;99.90;;;;;;5066953;28;20056;-75
2021/08/05 04:45:36;;;;;;;7.03;5.03;;;16.90;99.90;;;;;;5082601;28;20395;-75
2021/08/05 04:48:05;;;;;;;5.53;4.43;;;17.00;99.90;;;;;;5066754;28;20043;-74
2021/08/05 04:50:36;;;;;;;5.37;4.87;;;17.00;99.90;;;;;;5082045;28;20097;-74
2021/08/05 04:53:05;;;;;;;4.60;4.20;;;17.00;99.90;;;;;;5082365;28;20024;-74
2021/08/05 04:55:32;;;;;;;6.03;5.47;;;17.00;99.90;;;;;;5081692;28;20578;-74
2021/08/05 04:58:01;;;;;;;5.18;4.68;;;17.10;99.90;;;;;;5101601;28;20054;-74
2021/08/05 05:00:39;;;;;;;5.45;4.95;;;17.10;99.90;;;;;;5084777;28;20498;-75
2021/08/05 05:03:06;;;;;;;5.45;4.95;;;17.10;99.90;;;;;;5087009;28;20027;-79
2021/08/05 05:05:33;;;;;;;5.13;4.63;;;17.10;99.90;;;;;;5086780;28;20415;-79
2021/08/05 05:08:13;;;;;;;6.32;5.60;;;17.10;99.90;;;;;;5089120;28;20047;-78
2021/08/05 05:10:40;;;;;;;5.20;4.70;;;17.10;99.90;;;;;;5087647;28;20034;-79
2021/08/05 05:13:06;;;;;;;5.85;5.20;;;17.10;99.90;;;;;;5088781;28;20028;-79
2021/08/05 05:15:33;;;;;;;6.20;5.60;;;17.10;99.90;;;;;;5103589;28;20061;-75
2021/08/05 05:17:59;;;;;;;5.20;4.80;;;17.10;99.90;;;;;;5086358;28;20491;-74
2021/08/05 05:20:25;;;;;;;5.65;5.15;;;17.10;99.90;;;;;;5084636;28;20494;-74
2021/08/05 05:22:52;;;;;;;6.43;5.55;;;17.10;99.90;;;;;;5068933;28;20032;-74
2021/08/05 05:25:18;;;;;;;5.97;5.45;;;17.20;99.90;;;;;;5083805;28;20055;-74
2021/08/05 05:27:45;;;;;;;6.43;5.82;;;17.20;99.90;;;;;;5104526;28;20028;-75
2021/08/05 05:30:12;;;;;;;7.22;5.65;;;17.20;99.90;;;;;;5069869;28;20039;-74
2021/08/05 05:32:39;;;;;;;6.60;6.00;;;17.30;99.90;;;;;;5068023;28;21572;-75
2021/08/05 05:35:07;;;;;;;6.13;5.63;;;17.30;99.90;;;;;;5103138;28;20032;-74
2021/08/05 05:37:33;;;;;;;7.35;5.93;;;17.40;99.90;;;;;;5067628;28;20052;-74
2021/08/05 05:39:59;;;;;;;7.32;6.63;;;17.40;99.90;;;;;;5068623;28;20058;-74
2021/08/05 05:42:26;;;;;;;6.80;6.05;;;17.40;99.90;;;;;;5103384;28;20036;-74
2021/08/05 05:44:52;;;;;;;6.93;6.25;;;17.40;99.90;;;;;;5102604;28;20027;-75
2021/08/05 05:47:19;;;;;;;5.53;5.05;;;17.40;99.90;;;;;;5067699;28;20044;-75
2021/08/05 05:49:46;;;;;;;6.38;5.78;;;17.40;99.90;;;;;;5084798;28;20490;-75
2021/08/05 05:52:13;;;;;;;5.95;5.45;;;17.50;99.90;;;;;;5084799;28;20031;-75
2021/08/05 05:54:40;;;;;;;6.10;5.50;;;17.50;99.90;;;;;;5103119;28;20754;-75
2021/08/05 05:57:07;;;;;;;7.70;6.60;;;17.60;99.90;;;;;;5086052;28;20051;-75
2021/08/05 05:59:33;;;;;;;6.28;5.75;;;17.60;99.90;;;;;;5066906;28;20031;-75
2021/08/05 06:02:00;;;;;;;7.45;6.85;;;17.60;99.90;;;;;;5051052;28;20056;-75
2021/08/05 06:04:27;;;;;;;6.63;6.03;;;17.70;99.90;;;;;;5085238;28;20044;-75
2021/08/05 06:06:55;;;;;;;6.32;5.82;;;17.70;99.90;;;;;;5105037;28;20046;-79
2021/08/05 06:09:21;;;;;;;7.00;6.30;;;17.70;99.90;;;;;;5071014;28;20039;-81
2021/08/05 06:11:47;;;;;;;6.43;5.82;;;17.80;99.90;;;;;;5069294;28;20055;-79
2021/08/05 06:14:14;;;;;;;6.72;5.97;;;17.80;99.90;;;;;;5069340;28;20040;-79
2021/08/05 06:16:41;;;;;;;7.97;6.25;;;17.80;99.90;;;;;;5103999;28;20111;-82
2021/08/05 06:19:08;;;;;;;7.28;6.57;;;17.80;99.90;;;;;;5086127;28;20807;-79
2021/08/05 06:21:34;;;;;;;6.93;6.28;;;17.90;99.90;;;;;;5104760;28;20043;-80
2021/08/05 06:24:01;;;;;;;7.05;6.35;;;17.80;99.90;;;;;;5085850;28;20039;-81
2021/08/05 06:26:27;;;;;;;7.20;6.32;;;17.90;99.90;;;;;;5104764;28;20028;-80
2021/08/05 06:28:54;;;;;;;6.55;5.95;;;17.90;99.90;;;;;;5106239;28;20054;-81
2021/08/05 06:31:21;;;;;;;6.82;6.22;;;17.90;99.90;;;;;;5098575;28;20352;-79
2021/08/05 06:33:51;;;;;;;5.82;5.32;;;18.00;99.90;;;;;;5085689;28;20505;-79
2021/08/05 06:36:21;;;;;;;6.35;5.75;;;18.00;99.90;;;;;;5103195;28;20896;-79
2021/08/05 06:38:50;;;;;;;7.82;7.13;;;18.00;99.90;;;;;;5107846;28;20054;-77
2021/08/05 06:41:17;;;;;;;7.30;6.68;;;18.10;99.90;;;;;;5086609;28;20040;-78
2021/08/05 06:43:43;;;;;;;9.88;8.88;;;18.10;99.90;;;;;;5053727;28;20036;-79
2021/08/05 06:46:10;;;;;;;9.18;8.27;;;18.20;99.90;;;;;;5102710;28;20046;-79
2021/08/05 06:48:36;;;;;;;8.98;8.18;;;18.20;99.90;;;;;;5087237;28;20043;-79
2021/08/05 06:51:02;;;;;;;7.80;7.10;;;18.30;99.90;;;;;;5103230;28;20402;-79
2021/08/05 06:53:29;;;;;;;7.53;6.82;;;18.30;99.90;;;;;;5104124;28;20038;-78
2021/08/05 06:55:55;;;;;;;9.88;8.98;;;18.40;99.90;;;;;;5035368;28;20039;-78
2021/08/05 06:58:22;;;;;;;9.77;8.88;;;18.50;99.90;;;;;;5084689;28;20059;-76
2021/08/05 07:00:49;;;;;;;9.50;8.65;;;18.50;99.90;;;;;;5085489;28;20047;-75
2021/08/05 07:03:16;;;;;;;8.80;8.00;;;18.50;99.90;;;;;;5076649;27;20039;-75
2021/08/05 07:05:42;;;;;;;7.00;6.47;;;18.50;99.90;;;;;;5091658;27;20478;-75
2021/08/05 07:08:08;;;;;;;7.18;6.57;;;18.60;99.90;;;;;;5094589;27;20035;-75
2021/08/05 07:10:35;;;;;;;6.88;6.22;;;18.70;99.90;;;;;;5079209;27;20390;-76
2021/08/05 07:13:01;;;;;;;7.75;7.05;;;18.70;99.90;;;;;;5072186;28;20493;-76
2021/08/05 07:15:28;;;;;;;7.03;6.45;;;18.80;99.90;;;;;;5067275;28;20528;-75
2021/08/05 07:17:54;;;;;;;7.93;6.93;;;18.90;99.90;;;;;;5080779;28;20487;-79
2021/08/05 07:20:21;;;;;;;8.65;7.95;;;19.00;99.90;;;;;;5089117;28;20039;-79
2021/08/05 07:22:47;;;;;;;10.07;9.07;;;19.10;99.90;;;;;;5055881;28;20487;-79
2021/08/05 07:25:15;;;;;;;17.98;16.25;;;19.10;99.90;;;;;;5073850;28;20050;-79
2021/08/05 07:27:44;;;;;;;12.48;11.23;;;19.20;99.90;;;;;;5105758;28;20859;-82
2021/08/05 07:30:12;;;;;;;10.13;8.82;;;19.20;99.90;;;;;;5078410;28;20039;-80
2021/08/05 07:32:39;;;;;;;9.32;8.43;;;19.30;99.90;;;;;;5055632;28;20047;-79
2021/08/05 07:35:06;;;;;;;9.38;8.68;;;19.40;99.90;;;;;;5088089;28;20024;-80
2021/08/05 07:37:33;;;;;;;10.68;9.63;;;19.50;99.90;;;;;;5106046;28;20035;-80
2021/08/05 07:39:59;;;;;;;8.88;8.02;;;19.60;99.90;;;;;;5073377;28;20050;-79
2021/08/05 07:42:26;;;;;;;9.18;8.38;;;19.70;99.90;;;;;;5103401;28;20379;-79
2021/08/05 07:44:53;;;;;;;10.68;9.68;;;19.80;99.90;;;;;;5107001;28;20309;-79
2021/08/05 07:47:20;;;;;;;10.93;9.93;;;19.80;99.90;;;;;;5073167;28;20557;-79
2021/08/05 07:49:46;;;;;;;10.38;8.98;;;19.90;99.90;;;;;;5106700;28;20035;-75
2021/08/05 07:52:13;;;;;;;9.90;9.07;;;19.90;99.90;;;;;;5087886;28;20039;-75
2021/08/05 07:54:39;;;;;;;11.18;9.98;;;20.00;99.90;;;;;;5069951;28;20048;-75
2021/08/05 07:57:06;;;;;;;9.98;9.15;;;19.90;99.90;;;;;;5069673;28;20043;-77
2021/08/05 07:59:32;;;;;;;11.05;10.13;;;20.00;99.90;;;;;;5053460;28;20067;-76
2021/08/05 08:01:59;;;;;;;11.32;10.25;;;20.20;99.90;;;;;;5086880;28;20477;-76
2021/08/05 08:04:25;;;;;;;11.65;10.45;;;20.30;99.90;;;;;;5086118;28;20047;-76
2021/08/05 08:06:51;;;;;;;12.23;11.13;;;20.50;99.90;;;;;;5104963;28;20039;-76
2021/08/05 08:09:18;;;;;;;12.68;11.55;;;20.60;99.90;;;;;;5087151;28;20044;-76
2021/08/05 08:11:45;;;;;;;13.45;11.77;;;20.80;99.90;;;;;;5071120;28;20489;-76
2021/08/05 08:14:11;;;;;;;14.15;12.82;;;21.00;99.90;;;;;;5087982;28;20031;-76
2021/08/05 08:16:40;;;;;;;13.70;12.30;;;21.20;99.90;;;;;;5069619;28;20498;-76
2021/08/05 08:19:07;;;;;;;14.73;13.23;;;21.30;99.70;;;;;;5086507;28;20027;-76
2021/08/05 08:21:34;;;;;;;17.40;14.93;;;21.40;99.40;;;;;;5088087;28;20802;-76
2021/08/05 08:24:00;;;;;;;14.35;13.05;;;21.50;99.10;;;;;;5069765;28;20631;-76
2021/08/05 08:26:27;;;;;;;14.77;13.27;;;21.50;99.00;;;;;;5069872;28;20460;-76
2021/08/05 08:28:53;;;;;;;16.02;14.32;;;21.50;98.70;;;;;;5053521;28;20481;-75
2021/08/05 08:31:19;;;;;;;15.63;13.82;;;21.60;98.80;;;;;;5086222;28;20482;-76
2021/08/05 08:33:46;;;;;;;15.25;13.65;;;21.70;98.40;;;;;;5087550;28;20035;-76
2021/08/05 08:36:12;;;;;;;15.38;13.90;;;21.90;98.40;;;;;;5068822;28;20847;-75
2021/08/05 08:38:42;;;;;;;16.23;14.65;;;22.00;98.10;;;;;;5087293;28;20061;-75
2021/08/05 08:41:11;;;;;;;14.15;12.85;;;22.10;97.80;;;;;;5068690;28;20035;-76
2021/08/05 08:43:37;;;;;;;16.98;15.38;;;22.20;97.60;;;;;;5103997;28;20059;-76
2021/08/05 08:46:05;;;;;;;17.35;15.65;;;22.40;97.30;;;;;;5094705;27;20491;-76
2021/08/05 08:48:31;;;;;;;15.43;13.75;;;22.40;96.70;;;;;;5103518;27;20032;-75
2021/08/05 08:51:00;;;;;;;11.70;10.63;;;22.50;96.50;;;;;;5087317;28;20024;-75
2021/08/05 08:53:31;;;;;;;14.98;13.65;;;22.60;96.40;;;;;;5069751;28;20406;-77
2021/08/05 08:55:59;;;;;;;17.98;16.27;;;22.70;96.10;;;;;;5085222;28;20058;-76
2021/08/05 08:58:26;;;;;;;14.00;12.60;;;23.00;95.80;;;;;;5087004;28;20040;-76
2021/08/05 09:00:52;;;;;;;16.02;14.30;;;23.20;95.40;;;;;;5069937;28;20047;-76
2021/08/05 09:03:20;;;;;;;18.08;16.33;;;23.40;95.00;;;;;;5070837;28;20027;-76
2021/08/05 09:05:47;;;;;;;13.90;12.57;;;23.40;94.20;;;;;;5069607;28;20809;-76
2021/08/05 09:08:13;;;;;;;15.63;13.43;;;23.50;94.10;;;;;;5085156;28;20043;-77
2021/08/05 09:10:40;;;;;;;15.68;12.93;;;23.50;94.00;;;;;;5104209;28;20542;-76
2021/08/05 09:13:08;;;;;;;15.80;14.32;;;23.60;93.80;;;;;;5105755;27;20352;-76
2021/08/05 09:15:39;;;;;;;14.32;11.77;;;23.60;93.30;;;;;;5078927;28;20036;-77
2021/08/05 09:18:25;;;;;;;12.82;11.45;;;23.60;93.30;;;;;;5103515;27;20038;-76
2021/08/05 09:21:16;;;;;;;13.68;12.23;;;23.70;93.60;;;;;;5086048;28;20035;-77
2021/08/05 09:23:50;;;;;;;12.80;11.70;;;23.80;93.40;;;;;;5088936;28;20047;-77
2021/08/05 09:26:33;;;;;;;12.93;11.73;;;23.90;93.20;;;;;;5102741;28;20031;-79
2021/08/05 09:29:16;;;;;;;12.45;11.35;;;24.00;93.00;;;;;;5086138;28;20867;-79
2021/08/05 09:32:03;;;;;;;13.90;12.32;;;24.30;92.80;;;;;;5086682;28;20035;-80
2021/08/05 09:34:39;;;;;;;11.23;9.65;;;24.60;92.10;;;;;;5102601;27;20036;-80
2021/08/05 09:37:13;;;;;;;15.30;11.88;;;24.80;91.80;;;;;;5085901;28;20040;-79
2021/08/05 09:39:42;;;;;;;12.63;11.52;;;25.00;91.50;;;;;;5069888;28;20059;-82
2021/08/05 09:42:09;;;;;;;15.77;14.07;;;25.10;90.70;;;;;;5085836;28;20061;-78
2021/08/05 09:44:38;;;;;;;8.77;8.00;;;25.10;89.90;;;;;;5105504;28;20047;-78
2021/08/05 09:47:12;;;;;;;13.75;12.35;;;25.10;89.50;;;;;;5105907;28;20035;-80
2021/08/05 09:49:52;;;;;;;10.40;9.30;;;25.20;89.00;;;;;;5105863;28;20044;-80
2021/08/05 09:52:26;;;;;;;12.93;11.68;;;25.30;88.70;;;;;;5103605;28;20027;-80
2021/08/05 09:54:53;;;;;;;11.02;10.00;;;25.40;88.40;;;;;;5069743;28;20051;-76
2021/08/05 09:57:30;;;;;;;10.80;9.70;;;25.70;88.30;;;;;;5085853;28;20047;-76
2021/08/05 10:00:04;;;;;;;10.80;9.80;;;25.90;87.20;;;;;;5052463;28;20427;-76
2021/08/05 10:02:46;;;;;;;10.77;9.70;;;26.00;86.10;;;;;;5085657;28;20699;-81
2021/08/05 10:05:15;;;;;;;12.45;11.25;;;26.00;85.10;;;;;;5085784;28;20066;-80
2021/08/05 10:07:44;;;;;;;14.52;11.85;;;26.00;84.10;;;;;;5087512;28;20058;-80
2021/08/05 10:10:12;;;;;;;10.77;9.77;;;26.00;82.70;;;;;;5069998;28;20940;-80
2021/08/05 10:12:38;;;;;;;16.48;14.93;;;26.10;83.00;;;;;;5087727;28;20031;-80
2021/08/05 10:15:09;;;;;;;12.63;11.43;;;26.10;82.10;;;;;;5086070;28;20039;-80
2021/08/05 10:17:37;;;;;;;16.23;14.57;;;26.20;82.00;;;;;;5105966;28;20035;-80
2021/08/05 10:20:09;;;;;;;12.38;11.20;;;26.40;80.80;;;;;;5087496;28;20040;-80
2021/08/05 10:22:38;;;;;;;11.38;10.27;;;26.30;80.90;;;;;;5087404;28;20035;-80
2021/08/05 10:25:10;;;;;;;10.98;9.88;;;26.30;81.30;;;;;;5105551;28;20035;-80
2021/08/05 10:27:37;;;;;;;;;;;26.40;81.70;;;;;;5087232;28;20489;-80
2021/08/05 10:30:06;;;;;;;9.43;8.57;;;26.80;81.60;;;;;;5105081;28;19911;-79
2021/08/05 10:32:34;;;;;;;9.90;9.00;;;27.20;80.60;;;;;;5069143;28;20038;-77
2021/08/05 10:35:01;;;;;;;10.40;9.48;;;27.50;79.40;;;;;;5053980;28;20035;-79
2021/08/05 10:37:35;;;;;;;12.05;11.02;;;27.90;78.70;;;;;;5088580;28;20896;-79
2021/08/05 10:40:04;;;;;;;9.93;8.75;;;28.30;76.60;;;;;;5108526;28;20040;-76
2021/08/05 10:42:30;;;;;;;7.75;7.05;;;28.50;76.00;;;;;;5106334;28;20036;-76
2021/08/05 10:44:57;;;;;;;9.13;8.35;;;28.70;75.30;;;;;;5089574;28;20047;-75
2021/08/05 10:47:26;;;;;;;8.13;7.43;;;28.90;73.50;;;;;;5090074;28;20036;-77
2021/08/05 10:50:03;;;;;;;6.80;6.20;;;28.80;73.80;;;;;;5088931;28;20038;-79
2021/08/05 10:52:38;;;;;;;7.25;6.55;;;28.80;72.40;;;;;;5104971;28;20031;-76
2021/08/05 10:55:26;;;;;;;5.60;5.18;;;29.00;72.60;;;;;;5070388;28;20023;-76
2021/08/05 10:58:10;;;;;;;6.90;6.20;;;29.40;72.00;;;;;;5093234;27;20892;-76
2021/08/05 11:00:59;;;;;;;6.95;6.35;;;29.60;70.50;;;;;;5110194;27;20044;-77
2021/08/05 11:03:31;;;;;;;7.60;6.00;;;29.60;69.70;;;;;;5092178;28;20986;-75
2021/08/05 11:05:59;;;;;;;7.75;7.07;;;29.60;69.30;;;;;;5105402;28;20038;-77
2021/08/05 11:08:27;;;;;;;6.07;5.40;;;29.80;68.00;;;;;;5072332;28;20062;-80
2021/08/05 11:11:20;;;;;;;5.65;5.13;;;30.00;67.60;;;;;;5067071;28;20032;-76
2021/08/05 11:14:07;;;;;;;8.20;5.93;;;30.40;67.00;;;;;;5096067;28;20059;-77
2021/08/05 11:16:58;;;;;;;5.72;4.22;;;30.60;65.60;;;;;;5048759;28;20051;-77
2021/08/05 11:19:26;;;;;;;;;;;30.80;63.60;;;;;;5071143;28;20051;-77
2021/08/05 11:21:53;;;;;;;5.90;5.30;;;31.00;63.00;;;;;;5088335;28;19935;-77
2021/08/05 11:24:48;;;;;;;6.47;5.90;;;31.30;63.00;;;;;;5070701;28;20383;-77
2021/08/05 11:27:21;;;;;;;6.90;6.20;;;31.60;61.70;;;;;;5087127;28;20032;-77
2021/08/05 11:29:48;;;;;;;6.25;5.65;;;31.80;59.60;;;;;;5104672;27;20023;-77
2021/08/05 11:32:21;;;;;;;9.30;8.40;;;32.00;59.10;;;;;;5076863;28;20036;-77
2021/08/05 11:34:59;;;;;;;4.82;4.40;;;32.20;56.20;;;;;;5086330;28;20023;-77
2021/08/05 11:37:26;;;;;;;5.18;4.68;;;32.40;56.90;;;;;;5086145;28;20471;-77
2021/08/05 11:39:57;;;;;;;6.28;5.50;;;32.40;56.60;;;;;;5070962;28;20043;-77
2021/08/05 11:42:26;;;;;;;10.15;9.30;;;32.30;55.80;;;;;;5087162;28;20028;-77
2021/08/05 11:44:59;;;;;;;11.48;10.38;;;32.20;56.20;;;;;;5087866;28;20047;-77
2021/08/05 11:47:35;;;;;;;13.40;12.15;;;31.60;57.70;;;;;;5054551;28;20048;-80
2021/08/05 11:50:02;;;;;;;11.55;10.57;;;30.90;58.90;;;;;;5071412;28;20042;-79
2021/08/05 11:52:28;;;;;;;16.10;14.70;;;30.20;60.10;;;;;;5105468;28;20031;-79
2021/08/05 11:54:58;;;;;;;13.30;12.02;;;29.80;60.30;;;;;;5069813;28;20039;-79
2021/08/05 11:57:25;;;;;;;11.70;10.65;;;29.40;60.70;;;;;;5086811;27;20039;-80
2021/08/05 11:59:56;;;;;;;13.18;11.98;;;29.20;61.60;;;;;;5070011;28;20051;-79
2021/08/05 12:02:25;;;;;;;13.05;11.85;;;29.00;62.30;;;;;;5071012;28;20035;-80
2021/08/05 12:04:56;;;;;;;11.07;9.80;;;28.80;63.30;;;;;;5054230;28;20059;-80
2021/08/05 12:07:28;;;;;;;12.27;11.27;;;28.60;64.20;;;;;;5053579;28;20055;-80
2021/08/05 12:10:06;;;;;;;14.70;13.50;;;28.60;63.90;;;;;;5087742;28;20293;-79
2021/08/05 12:13:08;;;;;;;11.48;10.38;;;28.50;63.30;;;;;;5051828;28;20024;-79
2021/08/05 12:15:43;;;;;;;14.77;13.48;;;28.50;63.30;;;;;;5067431;28;20046;-79
2021/08/05 12:18:18;;;;;;;10.73;9.73;;;28.60;62.70;;;;;;5069773;28;20047;-79
2021/08/05 12:20:48;;;;;;;10.48;9.57;;;29.00;62.90;;;;;;5052736;28;20054;-80
2021/08/05 12:23:29;;;;;;;13.80;12.60;;;29.90;62.70;;;;;;5069621;28;20035;-80
2021/08/05 12:26:17;;;;;;;12.40;11.35;;;30.50;60.70;;;;;;5056085;28;20046;-79
2021/08/05 12:28:45;;;;;;;11.98;10.80;;;30.40;59.70;;;;;;5104588;28;20042;-79
2021/08/05 12:31:23;;;;;;;10.25;9.20;;;29.90;60.90;;;;;;5087369;28;20489;-79
2021/08/05 12:33:50;;;;;;;10.45;9.45;;;29.50;61.50;;;;;;5070395;28;20364;-80
2021/08/05 12:36:23;;;;;;;12.85;11.65;;;28.90;61.80;;;;;;5067466;28;20035;-80
2021/08/05 12:39:00;;;;;;;16.95;15.52;;;28.50;62.30;;;;;;5072271;28;20406;-79
2021/08/05 12:41:46;;;;;;;12.73;11.63;;;28.00;63.00;;;;;;5070349;28;20051;-79
2021/08/05 12:44:18;;;;;;;13.35;11.00;;;27.60;64.30;;;;;;5105327;27;20035;-80
2021/08/05 12:46:49;;;;;;;;;;;27.30;67.10;;;;;;5071473;28;20036;-81
2021/08/05 12:49:16;;;;;;;21.83;19.67;;;26.90;70.00;;;;;;5106373;28;19922;-79
2021/08/05 12:51:44;;;;;;;20.70;18.80;;;26.10;74.60;;;;;;5087542;28;20047;-77
2021/08/05 12:54:15;;;;;;;24.27;22.10;;;25.20;80.30;;;;;;5070220;28;20036;-78